createdAt,value
2023-05-26T00:03:05.585Z,45.30
2023-05-26T00:05:36.649Z,45.50
2023-05-26T00:08:05.252Z,45.50
2023-05-26T00:10:33.645Z,45.50
2023-05-26T00:13:02.155Z,45.60
2023-05-26T01:02:49.069Z,45.90
2023-05-26T01:05:18.944Z,45.90
2023-05-26T01:07:47.463Z,45.80
2023-05-26T01:10:16.392Z,45.80
2023-05-26T01:12:54.110Z,45.90
2023-05-26T01:47:34.049Z,45.50
2023-05-26T01:50:07.649Z,45.50
2023-05-26T01:52:37.740Z,45.60
2023-05-26T01:55:12.713Z,45.40
2023-05-26T01:57:43.966Z,45.50
2023-05-26T02:47:36.914Z,45.00
2023-05-26T02:50:06.599Z,45.00
2023-05-26T02:52:35.287Z,45.10
2023-05-26T02:55:04.138Z,45.20
2023-05-26T02:57:32.574Z,45.10
2023-05-26T03:00:01.035Z,45.00
2023-05-26T03:46:46.057Z,45.00
2023-05-26T03:49:16.294Z,45.00
2023-05-26T03:51:45.109Z,45.10
2023-05-26T03:54:13.635Z,45.10
2023-05-26T03:56:42.409Z,45.10
2023-05-26T03:59:11.222Z,45.00
2023-05-26T04:46:16.526Z,44.90
2023-05-26T04:48:45.396Z,44.90
2023-05-26T04:51:13.993Z,45.00
2023-05-26T04:53:42.601Z,44.90
2023-05-26T04:56:12.726Z,44.90
2023-05-26T04:58:45.177Z,44.90
2023-05-26T05:01:17.482Z,44.90
2023-05-26T05:04:04.548Z,45.00
2023-05-26T05:06:34.120Z,45.00
2023-05-26T05:09:02.741Z,44.90
2023-05-26T05:11:32.004Z,44.90
2023-05-26T05:14:00.699Z,45.20
2023-05-26T05:16:30.682Z,45.40
2023-05-26T05:18:59.574Z,45.90
2023-05-26T05:21:28.212Z,47.10
2023-05-26T05:23:59.146Z,48.70
2023-05-26T05:26:27.800Z,48.60
2023-05-26T05:28:56.198Z,48.70
2023-05-26T05:31:39.810Z,47.80
2023-05-26T05:34:08.301Z,47.50
2023-05-26T05:36:36.729Z,47.10
2023-05-26T05:39:05.829Z,47.10
2023-05-26T05:41:34.866Z,46.70
2023-05-26T05:44:04.517Z,46.80
2023-05-26T05:46:33.167Z,46.60
2023-05-26T05:49:26.147Z,46.60
2023-05-26T05:51:56.020Z,46.60
2023-05-26T05:54:24.553Z,46.40
2023-05-26T05:56:53.201Z,46.40
2023-05-26T05:59:22.899Z,46.70
2023-05-26T06:01:51.320Z,47.10
2023-05-26T06:04:20.304Z,47.30
2023-05-26T06:06:51.655Z,47.50
2023-05-26T06:09:20.162Z,47.80
2023-05-26T06:11:48.614Z,47.80
2023-05-26T06:14:17.766Z,47.80
2023-05-26T06:16:46.330Z,47.60
2023-05-26T06:19:14.873Z,49.30
2023-05-26T06:21:43.496Z,48.40
2023-05-26T06:24:13.516Z,48.00
2023-05-26T06:26:42.110Z,48.20
2023-05-26T06:29:11.529Z,48.40
2023-05-26T06:31:40.957Z,48.60
2023-05-26T06:34:16.250Z,48.60
2023-05-26T06:36:44.704Z,48.50
2023-05-26T06:39:14.700Z,48.20
2023-05-26T06:41:43.083Z,48.30
2023-05-26T06:44:11.655Z,47.00
2023-05-26T06:46:40.314Z,47.20
2023-05-26T06:49:08.849Z,47.90
2023-05-26T06:51:44.322Z,47.40
2023-05-26T06:54:14.713Z,47.30
2023-05-26T06:56:44.542Z,47.20
2023-05-26T06:59:14.503Z,47.30
2023-05-26T07:01:42.980Z,47.40
2023-05-26T07:04:12.052Z,47.30
2023-05-26T07:06:47.255Z,47.30
2023-05-26T07:09:20.952Z,47.30
2023-05-26T07:11:56.707Z,47.10
2023-05-26T07:14:42.492Z,46.80
2023-05-26T07:17:12.619Z,46.20
2023-05-26T07:19:42.729Z,46.30
2023-05-26T07:22:11.271Z,46.20
2023-05-26T07:24:50.891Z,46.00
2023-05-26T07:27:29.639Z,45.80
2023-05-26T07:29:58.181Z,45.90
2023-05-26T07:32:26.724Z,45.70
2023-05-26T07:34:55.898Z,45.70
2023-05-26T07:37:24.434Z,45.50
2023-05-26T07:39:54.294Z,45.60
2023-05-26T07:42:22.684Z,45.60
2023-05-26T07:44:51.373Z,45.60
2023-05-26T07:47:19.776Z,45.70
2023-05-26T07:49:48.417Z,45.60
2023-05-26T07:52:17.276Z,45.40
2023-05-26T07:54:45.680Z,45.30
2023-05-26T07:57:28.252Z,45.10
2023-05-26T07:59:58.145Z,45.00
2023-05-26T08:02:26.919Z,44.90
2023-05-26T08:04:55.506Z,45.30
2023-05-26T08:07:24.066Z,44.60
2023-05-26T08:09:53.411Z,44.70
2023-05-26T08:12:23.343Z,44.60
2023-05-26T08:14:52.061Z,44.60
2023-05-26T08:17:20.578Z,44.60
2023-05-26T08:19:49.458Z,44.30
2023-05-26T08:22:17.910Z,44.00
2023-05-26T08:24:46.515Z,44.00
2023-05-26T08:27:15.062Z,43.90
2023-05-26T08:29:44.878Z,43.90
2023-05-26T08:32:13.270Z,43.90
2023-05-26T08:34:43.642Z,44.00
2023-05-26T08:37:12.549Z,43.80
2023-05-26T08:39:41.542Z,44.00
2023-05-26T08:42:16.619Z,44.20
2023-05-26T08:44:47.262Z,44.10
2023-05-26T08:47:16.314Z,44.10
2023-05-26T08:49:51.485Z,44.10
2023-05-26T08:52:20.095Z,44.10
2023-05-26T08:54:50.136Z,44.10
2023-05-26T08:57:22.100Z,43.90
2023-05-26T08:59:53.097Z,43.80
2023-05-26T09:02:21.607Z,43.80
2023-05-26T09:04:50.272Z,43.60
2023-05-26T09:07:24.701Z,43.60
2023-05-26T09:09:54.723Z,43.60
2023-05-26T09:12:23.297Z,43.50
2023-05-26T09:14:53.217Z,43.60
2023-05-26T09:17:21.893Z,43.50
2023-05-26T09:19:50.483Z,43.50
2023-05-26T09:22:23.487Z,43.40
2023-05-26T09:24:52.653Z,43.20
2023-05-26T09:27:23.179Z,43.40
2023-05-26T09:29:54.861Z,43.30
2023-05-26T09:32:27.908Z,43.40
2023-05-26T09:34:59.988Z,43.40
2023-05-26T09:37:30.432Z,43.50
2023-05-26T09:40:10.328Z,43.50
2023-05-26T09:42:39.991Z,43.60
2023-05-26T09:45:10.322Z,43.70
2023-05-26T09:47:39.145Z,43.80
2023-05-26T09:50:09.668Z,43.80
2023-05-26T09:52:38.912Z,43.90
2023-05-26T09:55:08.735Z,44.00
2023-05-26T09:57:39.258Z,44.00
2023-05-26T10:00:13.592Z,44.10
2023-05-26T10:02:43.100Z,44.20
2023-05-26T10:05:13.297Z,44.30
2023-05-26T10:07:43.872Z,44.30
2023-05-26T10:10:16.033Z,44.40
2023-05-26T10:12:45.581Z,44.30
2023-05-26T10:15:16.612Z,44.30
2023-05-26T10:17:46.391Z,44.30
2023-05-26T10:20:16.470Z,43.80
2023-05-26T10:23:00.306Z,43.00
2023-05-26T10:25:35.787Z,43.00
2023-05-26T10:28:11.957Z,42.70
2023-05-26T10:30:47.096Z,42.70
2023-05-26T10:33:16.784Z,42.80
2023-05-26T10:35:56.036Z,42.70
2023-05-26T10:38:29.279Z,42.60
2023-05-26T10:40:57.737Z,42.70
2023-05-26T10:43:28.147Z,42.50
2023-05-26T10:46:00.018Z,42.70
2023-05-26T10:48:36.838Z,42.80
2023-05-26T10:51:16.869Z,42.90
2023-05-26T10:53:47.565Z,43.00
2023-05-26T10:56:16.599Z,43.10
2023-05-26T10:58:49.716Z,43.20
2023-05-26T11:01:29.361Z,43.20
2023-05-26T11:03:59.979Z,43.30
2023-05-26T11:06:46.770Z,43.40
2023-05-26T11:09:15.917Z,43.40
2023-05-26T11:12:06.798Z,43.50
2023-05-26T11:14:36.845Z,43.50
2023-05-26T11:17:07.654Z,43.50
2023-05-26T11:19:38.871Z,43.60
2023-05-26T11:22:10.547Z,43.70
2023-05-26T11:24:40.531Z,43.80
2023-05-26T11:27:09.027Z,43.80
2023-05-26T11:29:38.092Z,43.90
2023-05-26T11:32:08.094Z,43.90
2023-05-26T11:34:36.503Z,43.90
2023-05-26T11:37:05.260Z,43.90
2023-05-26T11:39:36.022Z,43.90
2023-05-26T11:42:12.264Z,43.90
2023-05-26T11:44:41.302Z,44.00
2023-05-26T11:47:15.674Z,44.00
2023-05-26T11:49:49.301Z,44.00
2023-05-26T11:52:18.925Z,44.10
2023-05-26T11:54:47.368Z,44.10
2023-05-26T11:57:32.062Z,44.10
2023-05-26T12:00:00.744Z,44.00
2023-05-26T12:02:30.614Z,44.00
2023-05-26T12:04:59.098Z,44.00
2023-05-26T12:07:31.274Z,44.10
2023-05-26T12:10:08.347Z,44.00
2023-05-26T12:12:49.456Z,44.10
2023-05-26T12:15:22.165Z,44.10
2023-05-26T12:17:53.463Z,44.10
2023-05-26T12:23:02.427Z,44.20
2023-05-26T12:25:32.494Z,44.20
2023-05-26T12:28:01.233Z,44.30
2023-05-26T12:33:04.928Z,44.10
2023-05-26T12:35:33.598Z,44.80
2023-05-26T12:38:02.062Z,44.30
2023-05-26T12:40:30.534Z,44.30
2023-05-26T12:42:58.956Z,44.60
2023-05-26T12:45:27.663Z,44.60
2023-05-26T12:47:56.208Z,44.70
2023-05-26T12:50:26.139Z,44.80
2023-05-26T12:52:54.624Z,44.80
2023-05-26T12:55:24.798Z,44.90
2023-05-26T12:57:53.329Z,44.90
2023-05-26T13:00:22.419Z,44.80
2023-05-26T13:02:51.102Z,44.90
2023-05-26T13:05:22.074Z,45.00
2023-05-26T13:07:51.956Z,45.00
2023-05-26T13:10:20.328Z,45.10
2023-05-26T13:12:48.972Z,45.40
2023-05-26T13:15:17.747Z,45.60
2023-05-26T13:17:47.711Z,45.50
2023-05-26T13:20:16.327Z,45.50
2023-05-26T13:22:46.824Z,45.50
2023-05-26T13:25:17.103Z,45.50
2023-05-26T13:27:45.607Z,45.60
2023-05-26T13:30:14.682Z,45.60
2023-05-26T13:32:43.387Z,45.60
2023-05-26T13:35:12.630Z,45.70
2023-05-26T13:37:41.296Z,45.70
2023-05-26T13:40:12.064Z,45.80
2023-05-26T13:42:41.933Z,45.90
2023-05-26T13:45:12.201Z,46.30
2023-05-26T13:47:40.695Z,46.40
2023-05-26T13:50:20.356Z,46.30
2023-05-26T13:52:50.037Z,46.30
2023-05-26T13:55:18.548Z,46.30
2023-05-26T13:57:48.329Z,46.30
2023-05-26T14:00:17.245Z,46.30
2023-05-26T14:02:47.004Z,46.30
2023-05-26T14:05:16.644Z,46.30
2023-05-26T14:07:45.107Z,46.20
2023-05-26T14:10:14.362Z,46.20
2023-05-26T14:12:42.982Z,46.20
2023-05-26T14:15:13.937Z,46.30
2023-05-26T14:17:44.430Z,46.70
2023-05-26T14:21:53.548Z,46.70
2023-05-26T14:23:04.857Z,46.70
2023-05-26T14:25:33.311Z,46.40
2023-05-26T14:28:01.810Z,46.30
2023-05-26T14:30:32.723Z,46.20
2023-05-26T14:33:04.658Z,46.20
2023-05-26T14:35:33.383Z,46.20
2023-05-26T14:38:01.885Z,46.10
2023-05-26T14:40:30.853Z,46.10
2023-05-26T14:42:59.386Z,46.10
2023-05-26T14:45:27.916Z,46.00
2023-05-26T14:47:57.746Z,46.00
2023-05-26T14:50:26.194Z,46.10
2023-05-26T14:52:54.582Z,46.10
2023-05-26T14:55:25.508Z,46.10
2023-05-26T14:57:55.010Z,46.00
2023-05-26T15:00:24.461Z,46.00
2023-05-26T15:02:54.681Z,46.00
2023-05-26T15:05:24.540Z,46.00
2023-05-26T15:07:52.958Z,46.10
2023-05-26T15:10:34.486Z,46.10
2023-05-26T15:13:03.879Z,46.00
2023-05-26T15:15:32.415Z,46.00
2023-05-26T15:18:01.146Z,46.00
2023-05-26T15:20:33.664Z,46.10
2023-05-26T15:23:02.407Z,46.10
2023-05-26T15:25:31.204Z,46.00
2023-05-26T15:28:01.162Z,46.00
2023-05-26T15:30:29.733Z,46.10
2023-05-26T15:32:58.113Z,46.10
2023-05-26T15:35:26.613Z,46.10
2023-05-26T15:38:02.634Z,46.10
2023-05-26T15:40:33.854Z,46.10
2023-05-26T15:43:02.339Z,46.10
2023-05-26T15:45:31.533Z,46.10
2023-05-26T15:47:59.958Z,46.10
2023-05-26T15:50:28.391Z,46.10
2023-05-26T15:52:58.333Z,46.10
2023-05-26T15:55:26.973Z,46.10
2023-05-26T15:57:59.802Z,46.00
2023-05-26T16:00:29.719Z,45.80
2023-05-26T16:02:58.228Z,45.80
2023-05-26T16:05:26.658Z,45.80
2023-05-26T16:07:55.144Z,45.70
2023-05-26T16:10:24.981Z,45.90
2023-05-26T16:12:53.396Z,45.90
2023-05-26T16:15:21.874Z,46.00
2023-05-26T16:17:50.432Z,46.10
2023-05-26T16:20:19.093Z,47.90
2023-05-26T16:22:50.349Z,46.90
2023-05-26T16:25:19.162Z,48.70
2023-05-26T16:27:49.109Z,49.70
2023-05-26T16:30:17.455Z,49.80
2023-05-26T16:32:45.921Z,49.30
2023-05-26T16:35:14.355Z,48.70
2023-05-26T16:37:42.797Z,48.50
2023-05-26T16:40:12.304Z,48.10
2023-05-26T16:42:41.465Z,52.50
2023-05-26T16:45:12.459Z,51.10
2023-05-26T16:47:40.893Z,50.50
2023-05-26T16:50:10.498Z,50.00
2023-05-26T16:52:39.094Z,49.90
2023-05-26T16:55:10.220Z,49.60
2023-05-26T16:57:38.748Z,50.40
2023-05-26T17:00:10.905Z,50.10
2023-05-26T17:02:39.605Z,50.20
2023-05-26T17:05:09.503Z,51.70
2023-05-26T17:07:40.036Z,52.00
2023-05-26T17:10:10.056Z,52.10
2023-05-26T17:12:39.018Z,52.00
2023-05-26T17:15:10.610Z,51.60
2023-05-26T17:17:39.121Z,51.40
2023-05-26T17:20:11.794Z,51.60
2023-05-26T17:22:41.316Z,51.30
2023-05-26T17:25:10.787Z,51.80
2023-05-26T17:27:39.450Z,56.10
2023-05-26T17:30:11.225Z,52.90
2023-05-26T17:32:39.919Z,54.20
2023-05-26T17:35:09.947Z,56.20
2023-05-26T17:37:38.592Z,55.60
2023-05-26T17:40:08.663Z,58.10
2023-05-26T17:42:37.364Z,57.80
2023-05-26T17:45:07.482Z,58.60
2023-05-26T17:47:37.303Z,58.00
2023-05-26T17:50:10.747Z,57.00
2023-05-26T17:52:41.192Z,58.60
2023-05-26T17:55:10.302Z,56.30
2023-05-26T17:57:38.778Z,54.20
2023-05-26T18:00:09.212Z,57.90
2023-05-26T18:02:45.040Z,54.20
2023-05-26T18:05:13.720Z,52.20
2023-05-26T18:07:42.288Z,52.30
2023-05-26T18:10:12.432Z,52.70
2023-05-26T18:12:40.975Z,52.00
2023-05-26T18:15:11.624Z,51.20
2023-05-26T18:17:40.110Z,50.60
2023-05-26T18:20:11.509Z,50.90
2023-05-26T18:22:40.639Z,50.70
2023-05-26T18:25:11.035Z,51.20
2023-05-26T18:27:39.876Z,51.50
2023-05-26T18:30:11.219Z,50.90
2023-05-26T18:32:39.789Z,50.90
2023-05-26T18:35:11.521Z,49.20
2023-05-26T18:37:43.054Z,49.10
2023-05-26T18:40:13.356Z,48.80
2023-05-26T18:42:43.026Z,48.80
2023-05-26T18:45:13.822Z,48.90
2023-05-26T18:47:44.596Z,48.70
2023-05-26T18:50:17.115Z,48.60
2023-05-26T18:52:46.022Z,48.40
2023-05-26T18:55:14.483Z,48.00
2023-05-26T18:57:43.015Z,47.50
2023-05-26T19:00:15.600Z,47.40
2023-05-26T19:02:44.427Z,47.50
2023-05-26T19:05:16.987Z,47.30
2023-05-26T19:07:45.593Z,47.40
2023-05-26T19:10:14.229Z,47.30
2023-05-26T19:12:42.883Z,47.20
2023-05-26T19:15:11.956Z,46.80
2023-05-26T19:17:40.580Z,47.60
2023-05-26T19:20:13.107Z,48.00
2023-05-26T19:22:43.428Z,47.80
2023-05-26T19:25:12.170Z,49.60
2023-05-26T19:27:40.817Z,49.70
2023-05-26T19:30:10.948Z,49.00
2023-05-26T19:32:42.322Z,49.00
2023-05-26T19:35:13.415Z,49.00
2023-05-26T19:37:43.426Z,49.10
2023-05-26T19:40:12.440Z,49.50
2023-05-26T19:42:41.176Z,49.20
2023-05-26T19:45:11.707Z,49.40
2023-05-26T19:47:42.268Z,49.90
2023-05-26T19:50:13.356Z,50.10
2023-05-26T19:52:43.975Z,49.70
2023-05-26T19:55:12.553Z,49.60
2023-05-26T19:57:41.685Z,50.40
2023-05-26T20:00:11.672Z,50.20
2023-05-26T20:02:40.334Z,49.80
2023-05-26T20:05:09.834Z,50.30
2023-05-26T20:07:38.703Z,50.00
2023-05-26T20:10:09.868Z,49.50
2023-05-26T20:12:38.665Z,49.30
2023-05-26T20:15:09.215Z,49.40
2023-05-26T20:17:39.283Z,50.10
2023-05-26T20:20:13.877Z,49.10
2023-05-26T20:22:45.615Z,49.60
2023-05-26T20:25:17.315Z,50.00
2023-05-26T20:27:46.129Z,50.40
2023-05-26T20:30:15.987Z,50.70
2023-05-26T20:32:45.651Z,51.20
2023-05-26T20:35:14.581Z,51.50
2023-05-26T20:37:43.580Z,51.80
2023-05-26T20:40:18.005Z,52.30
2023-05-26T20:42:49.930Z,52.10
2023-05-26T20:45:23.066Z,52.70
2023-05-26T20:47:51.716Z,52.50
2023-05-26T20:50:20.884Z,57.90
2023-05-26T20:52:49.634Z,55.60
2023-05-26T20:55:18.465Z,55.00
2023-05-26T20:57:50.439Z,54.40
2023-05-26T21:00:19.936Z,54.10
2023-05-26T21:02:48.844Z,54.70
2023-05-26T21:05:18.890Z,54.90
2023-05-26T21:07:47.715Z,55.70
2023-05-26T21:10:18.953Z,57.10
2023-05-26T21:12:48.917Z,56.60
2023-05-26T21:15:18.018Z,56.40
2023-05-26T21:17:46.676Z,56.60
2023-05-26T21:20:16.398Z,56.00
2023-05-26T21:22:45.049Z,56.60
2023-05-26T21:25:13.811Z,56.40
2023-05-26T21:27:42.458Z,56.70
2023-05-26T21:30:12.875Z,57.10
2023-05-26T21:32:41.309Z,57.10
2023-05-26T21:35:10.791Z,55.10
2023-05-26T21:37:39.271Z,54.80
2023-05-26T21:40:09.790Z,53.10
2023-05-26T21:42:38.255Z,50.40
2023-05-26T21:45:08.472Z,49.30
2023-05-26T21:47:38.371Z,48.60
2023-05-26T21:50:08.598Z,47.50
2023-05-26T21:52:37.675Z,48.80
2023-05-26T21:55:10.331Z,48.20
2023-05-26T21:57:39.353Z,48.50
2023-05-26T22:00:13.522Z,47.70
2023-05-26T22:02:44.819Z,46.90
2023-05-26T22:05:14.150Z,46.70
2023-05-26T22:07:42.948Z,46.70
2023-05-26T22:10:12.509Z,46.50
2023-05-26T22:12:41.816Z,46.90
2023-05-26T22:15:11.809Z,46.40
2023-05-26T22:17:40.267Z,46.90
2023-05-26T22:20:11.768Z,47.30
2023-05-26T22:22:42.746Z,47.70
2023-05-26T22:25:11.783Z,48.00
2023-05-26T22:27:40.342Z,48.30
2023-05-26T22:30:10.130Z,48.50
2023-05-26T22:32:38.721Z,48.70
2023-05-26T22:35:09.492Z,48.90
2023-05-26T22:37:38.042Z,49.00
2023-05-26T22:40:08.332Z,49.10
2023-05-26T22:42:36.863Z,49.20
2023-05-26T22:45:06.809Z,49.40
2023-05-26T22:47:35.399Z,49.50
2023-05-26T22:50:04.478Z,49.50
2023-05-26T22:52:34.446Z,49.50
2023-05-26T22:55:03.119Z,49.70
2023-05-26T22:57:31.702Z,49.70
2023-05-26T23:00:00.376Z,49.80
2023-05-26T23:02:29.488Z,49.80
2023-05-26T23:04:58.127Z,49.90
2023-05-26T23:07:26.774Z,50.00
2023-05-26T23:09:56.633Z,50.00
2023-05-26T23:12:25.210Z,50.00
2023-05-26T23:14:53.728Z,50.10
2023-05-26T23:17:22.454Z,50.10
2023-05-26T23:19:51.201Z,50.20
2023-05-26T23:22:19.748Z,50.20
2023-05-26T23:24:48.217Z,50.30
2023-05-26T23:27:18.317Z,50.20
2023-05-26T23:29:46.995Z,50.30
